Time;durP1;ratioP1;P1;durP2;ratioP2;P2;SDS_P1;SDS_P2;PMS_P1;PMS_P2;Temp;Humidity;BMP_temperature;BMP_pressure;BME280_temperature;BME280_humidity;BME280_pressure;Samples;Min_cycle;Max_cycle;Signal;HPM_P1;HPM_P2
2023/02/25 00:01:07;;;;;;;;;;;;;;;;;;4943449;28;19926;-77
2023/02/25 00:03:54;;;;;;;;;;;;;;;;;;4930585;28;20012;-76
2023/02/25 00:06:40;;;;;;;;;;;;;;;;;;4945685;29;20662;-77
2023/02/25 00:09:26;;;;;;;;;;;;;;;;;;4943260;29;19970;-77
2023/02/25 00:12:13;;;;;;;;;;;;;;;;;;4931148;28;19922;-77
2023/02/25 00:15:00;;;;;;;;;;;;;;;;;;4946406;28;19919;-76
2023/02/25 00:17:48;;;;;;;;;;;;;;;;;;4941435;29;19922;-77
2023/02/25 00:20:35;;;;;;;;;;;;;;;;;;4945127;28;19933;-76
2023/02/25 00:23:21;;;;;;;;;;;;;;;;;;4941433;28;20389;-77
2023/02/25 00:26:08;;;;;;;;;;;;;;;;;;4932075;28;19927;-79
2023/02/25 00:28:54;;;;;;;;;;;;;;;;;;4936640;29;19929;-77
2023/02/25 00:31:41;;;;;;;;;;;;;;;;;;4939006;29;19918;-77
2023/02/25 00:34:27;;;;;;;;;;;;;;;;;;4942753;29;19964;-77
2023/02/25 00:37:14;;;;;;;;;;;;;;;;;;4940748;28;19923;-77
2023/02/25 00:40:00;;;;;;;;;;;;;;;;;;4945941;28;20268;-78
2023/02/25 00:42:48;;;;;;;;;;;;;;;;;;4944703;28;19922;-78
2023/02/25 00:45:34;;;;;;;;;;;;;;;;;;4946393;28;19949;-77
2023/02/25 00:48:21;;;;;;;;;;;;;;;;;;4947185;28;20392;-78
2023/02/25 00:51:07;;;;;;;;;;;;;;;;;;4939131;28;19922;-78
2023/02/25 00:53:57;;;;;;;;;;;;;;;;;;4946817;28;19926;-77
2023/02/25 00:56:43;;;;;;;;;;;;;;;;;;4955932;28;19980;-78
2023/02/25 00:59:30;;;;;;;;;;;;;;;;;;4939696;28;20375;-77
2023/02/25 01:02:16;;;;;;;;;;;;;;;;;;4935645;29;19914;-76
2023/02/25 01:05:03;;;;;;;;;;;;;;;;;;4946810;28;19925;-77
2023/02/25 01:07:49;;;;;;;;;;;;;;;;;;4937361;29;20434;-77
2023/02/25 01:10:36;;;;;;;;;;;;;;;;;;4932883;29;19923;-77
2023/02/25 01:13:22;;;;;;;;;;;;;;;;;;4930503;28;19922;-77
2023/02/25 01:16:09;;;;;;;;;;;;;;;;;;4949612;28;19928;-77
2023/02/25 01:18:55;;;;;;;;;;;;;;;;;;4945407;29;19972;-76
2023/02/25 01:21:42;;;;;;;;;;;;;;;;;;4937581;28;19934;-77
2023/02/25 01:24:29;;;;;;;;;;;;;;;;;;4934411;29;19931;-76
2023/02/25 01:27:15;;;;;;;;;;;;;;;;;;4945062;28;19930;-76
2023/02/25 01:30:02;;;;;;;;;;;;;;;;;;4936492;28;20313;-76
2023/02/25 01:32:48;;;;;;;;;;;;;;;;;;4935656;28;19934;-77
2023/02/25 01:35:35;;;;;;;;;;;;;;;;;;4944480;29;19937;-77
2023/02/25 01:38:22;;;;;;;;;;;;;;;;;;4943116;29;19919;-77
2023/02/25 01:41:08;;;;;;;;;;;;;;;;;;4943150;28;19922;-78
2023/02/25 01:43:55;;;;;;;;;;;;;;;;;;4934316;28;19918;-77
2023/02/25 01:46:41;;;;;;;;;;;;;;;;;;4935015;29;20363;-77
2023/02/25 01:49:28;;;;;;;;;;;;;;;;;;4939615;29;19926;-78
2023/02/25 01:52:14;;;;;;;;;;;;;;;;;;4933897;29;20487;-77
2023/02/25 01:55:00;;;;;;;;;;;;;;;;;;4927233;29;19918;-77
2023/02/25 01:57:48;;;;;;;;;;;;;;;;;;4941235;29;20027;-77
2023/02/25 02:00:34;;;;;;;;;;;;;;;;;;4940119;28;20462;-77
2023/02/25 02:03:21;;;;;;;;;;;;;;;;;;4939952;29;19919;-76
2023/02/25 02:06:07;;;;;;;;;;;;;;;;;;4937807;29;19940;-77
2023/02/25 02:08:54;;;;;;;;;;;;;;;;;;4933478;29;19930;-77
2023/02/25 02:11:40;;;;;;;;;;;;;;;;;;4945733;29;19930;-77
2023/02/25 02:14:26;;;;;;;;;;;;;;;;;;4936561;29;19930;-77
2023/02/25 02:17:13;;;;;;;;;;;;;;;;;;4930238;29;19926;-77
2023/02/25 02:19:59;;;;;;;;;;;;;;;;;;4939412;29;19919;-77
2023/02/25 02:22:46;;;;;;;;;;;;;;;;;;4941393;28;19926;-77
2023/02/25 02:25:33;;;;;;;;;;;;;;;;;;4936542;29;20278;-77
2023/02/25 02:28:19;;;;;;;;;;;;;;;;;;4943665;29;19954;-77
2023/02/25 02:31:05;;;;;;;;;;;;;;;;;;4929264;29;20300;-77
2023/02/25 02:33:52;;;;;;;;;;;;;;;;;;4940493;29;19915;-77
2023/02/25 02:36:38;;;;;;;;;;;;;;;;;;4930405;29;20299;-77
2023/02/25 02:39:25;;;;;;;;;;;;;;;;;;4942913;29;20010;-77
2023/02/25 02:42:11;;;;;;;;;;;;;;;;;;4929463;29;19926;-77
2023/02/25 02:44:58;;;;;;;;;;;;;;;;;;4942709;29;20318;-77
2023/02/25 02:47:45;;;;;;;;;;;;;;;;;;4937678;29;19927;-77
2023/02/25 02:50:32;;;;;;;;;;;;;;;;;;4924788;29;19925;-76
2023/02/25 02:53:19;;;;;;;;;;;;;;;;;;4941267;28;19919;-77
2023/02/25 02:56:05;;;;;;;;;;;;;;;;;;4935067;28;19930;-76
2023/02/25 02:58:52;;;;;;;;;;;;;;;;;;4933974;29;19918;-77
2023/02/25 03:01:38;;;;;;;;;;;;;;;;;;4929761;29;20019;-77
2023/02/25 03:04:26;;;;;;;;;;;;;;;;;;4936787;29;19922;-78
2023/02/25 03:07:13;;;;;;;;;;;;;;;;;;4935436;29;19927;-77
2023/02/25 03:09:59;;;;;;;;;;;;;;;;;;4933255;29;19923;-76
2023/02/25 03:12:46;;;;;;;;;;;;;;;;;;4931716;29;19923;-76
2023/02/25 03:15:32;;;;;;;;;;;;;;;;;;4935547;29;20445;-76
2023/02/25 03:18:19;;;;;;;;;;;;;;;;;;4931661;29;19919;-76
2023/02/25 03:21:05;;;;;;;;;;;;;;;;;;4936543;29;19930;-76
2023/02/25 03:23:52;;;;;;;;;;;;;;;;;;4939957;29;20025;-75
2023/02/25 03:26:41;;;;;;;;;;;;;;;;;;4943256;29;20585;-75
2023/02/25 03:29:28;;;;;;;;;;;;;;;;;;4943247;29;19919;-76
2023/02/25 03:32:14;;;;;;;;;;;;;;;;;;4937503;28;19922;-75
2023/02/25 03:35:01;;;;;;;;;;;;;;;;;;4941298;28;19925;-76
2023/02/25 03:37:47;;;;;;;;;;;;;;;;;;4944287;28;19922;-77
2023/02/25 03:40:34;;;;;;;;;;;;;;;;;;4938751;29;19922;-76
2023/02/25 03:43:20;;;;;;;;;;;;;;;;;;4938852;29;19940;-76
2023/02/25 03:46:07;;;;;;;;;;;;;;;;;;4937805;29;20053;-76
2023/02/25 03:48:53;;;;;;;;;;;;;;;;;;4933710;29;19926;-76
2023/02/25 03:51:40;;;;;;;;;;;;;;;;;;4939240;29;19930;-75
2023/02/25 03:54:26;;;;;;;;;;;;;;;;;;4945625;29;19932;-76
2023/02/25 03:57:13;;;;;;;;;;;;;;;;;;4937677;29;19923;-76
2023/02/25 03:59:59;;;;;;;;;;;;;;;;;;4936952;29;19926;-76
2023/02/25 04:02:46;;;;;;;;;;;;;;;;;;4941851;28;20398;-76
2023/02/25 04:05:34;;;;;;;;;;;;;;;;;;4940812;28;20666;-76
2023/02/25 04:08:20;;;;;;;;;;;;;;;;;;4937243;28;19931;-77
2023/02/25 04:11:07;;;;;;;;;;;;;;;;;;4933927;29;19926;-77
2023/02/25 04:13:53;;;;;;;;;;;;;;;;;;4943747;29;19925;-76
2023/02/25 04:16:40;;;;;;;;;;;;;;;;;;4936241;28;19945;-76
2023/02/25 04:19:27;;;;;;;;;;;;;;;;;;4935074;28;20394;-77
2023/02/25 04:22:13;;;;;;;;;;;;;;;;;;4931535;28;19918;-77
2023/02/25 04:25:00;;;;;;;;;;;;;;;;;;4935218;28;19919;-77
2023/02/25 04:27:46;;;;;;;;;;;;;;;;;;4945854;28;20223;-76
2023/02/25 04:30:33;;;;;;;;;;;;;;;;;;4947203;28;19919;-76
2023/02/25 04:33:19;;;;;;;;;;;;;;;;;;4946721;29;19919;-76
2023/02/25 04:36:06;;;;;;;;;;;;;;;;;;4943526;28;19918;-76
2023/02/25 04:38:52;;;;;;;;;;;;;;;;;;4942623;28;19937;-76
2023/02/25 04:41:39;;;;;;;;;;;;;;;;;;4947788;28;19922;-77
2023/02/25 04:44:25;;;;;;;;;;;;;;;;;;4941832;28;19925;-76
2023/02/25 04:47:12;;;;;;;;;;;;;;;;;;4936295;28;19941;-78
2023/02/25 04:49:58;;;;;;;;;;;;;;;;;;4946399;28;19918;-77
2023/02/25 04:52:45;;;;;;;;;;;;;;;;;;4940315;29;20033;-77
2023/02/25 04:55:31;;;;;;;;;;;;;;;;;;4930233;28;20391;-77
2023/02/25 04:58:18;;;;;;;;;;;;;;;;;;4943042;28;19918;-77
2023/02/25 05:01:04;;;;;;;;;;;;;;;;;;4944502;28;19914;-77
2023/02/25 05:03:55;;;;;;;;;;;;;;;;;;4937895;28;19921;-76
2023/02/25 05:06:42;;;;;;;;;;;;;;;;;;4946697;28;20425;-76
2023/02/25 05:09:28;;;;;;;;;;;;;;;;;;4943328;28;19935;-76
2023/02/25 05:12:15;;;;;;;;;;;;;;;;;;4944815;28;19935;-76
2023/02/25 05:15:04;;;;;;;;;;;;;;;;;;4941229;29;19914;-76
2023/02/25 05:17:51;;;;;;;;;;;;;;;;;;4943971;28;19922;-77
2023/02/25 05:20:37;;;;;;;;;;;;;;;;;;4932273;29;20175;-77
2023/02/25 05:23:24;;;;;;;;;;;;;;;;;;4937198;28;19929;-76
2023/02/25 05:26:10;;;;;;;;;;;;;;;;;;4931735;28;19931;-76
2023/02/25 05:28:57;;;;;;;;;;;;;;;;;;4940503;29;19919;-76
2023/02/25 05:31:43;;;;;;;;;;;;;;;;;;4938991;29;20591;-75
2023/02/25 05:34:30;;;;;;;;;;;;;;;;;;4931006;28;20514;-75
2023/02/25 05:37:16;;;;;;;;;;;;;;;;;;4941621;28;20383;-75
2023/02/25 05:40:03;;;;;;;;;;;;;;;;;;4942695;29;19925;-77
2023/02/25 05:42:49;;;;;;;;;;;;;;;;;;4939968;29;19918;-75
2023/02/25 05:45:35;;;;;;;;;;;;;;;;;;4942256;28;19962;-76
2023/02/25 05:48:25;;;;;;;;;;;;;;;;;;4941031;28;19959;-76
2023/02/25 05:51:11;;;;;;;;;;;;;;;;;;4935854;29;19936;-76
2023/02/25 05:53:59;;;;;;;;;;;;;;;;;;4943172;28;19922;-76
2023/02/25 05:56:45;;;;;;;;;;;;;;;;;;4943984;28;19925;-77
2023/02/25 05:59:32;;;;;;;;;;;;;;;;;;4936809;28;20359;-76
2023/02/25 06:02:18;;;;;;;;;;;;;;;;;;4943093;28;19922;-77
2023/02/25 06:05:05;;;;;;;;;;;;;;;;;;4941897;28;19922;-77
2023/02/25 06:07:51;;;;;;;;;;;;;;;;;;4935338;29;20379;-79
2023/02/25 06:10:38;;;;;;;;;;;;;;;;;;4943298;28;19934;-76
2023/02/25 06:13:24;;;;;;;;;;;;;;;;;;4928696;29;19915;-77
2023/02/25 06:16:11;;;;;;;;;;;;;;;;;;4940400;29;20034;-77
2023/02/25 06:18:57;;;;;;;;;;;;;;;;;;4937768;28;19922;-77
2023/02/25 06:21:44;;;;;;;;;;;;;;;;;;4944617;28;19918;-77
2023/02/25 06:24:30;;;;;;;;;;;;;;;;;;4944221;28;19925;-76
2023/02/25 06:27:17;;;;;;;;;;;;;;;;;;4940348;28;20010;-76
2023/02/25 06:30:04;;;;;;;;;;;;;;;;;;4944612;28;20423;-76
2023/02/25 06:32:50;;;;;;;;;;;;;;;;;;4944687;28;19922;-77
2023/02/25 06:35:37;;;;;;;;;;;;;;;;;;4943535;28;19921;-76
2023/02/25 06:38:23;;;;;;;;;;;;;;;;;;4936398;29;19969;-76
2023/02/25 06:41:10;;;;;;;;;;;;;;;;;;4940584;28;20398;-76
2023/02/25 06:43:56;;;;;;;;;;;;;;;;;;4931113;28;19998;-77
2023/02/25 06:46:43;;;;;;;;;;;;;;;;;;4945688;28;20012;-76
2023/02/25 06:49:29;;;;;;;;;;;;;;;;;;4939018;28;20378;-76
2023/02/25 06:52:16;;;;;;;;;;;;;;;;;;4948288;28;19922;-76
2023/02/25 06:55:05;;;;;;;;;;;;;;;;;;4942573;28;19925;-77
2023/02/25 06:57:53;;;;;;;;;;;;;;;;;;4947024;29;19925;-77
2023/02/25 07:00:41;;;;;;;;;;;;;;;;;;4943257;29;19918;-77
2023/02/25 07:03:28;;;;;;;;;;;;;;;;;;4943939;28;19926;-76
2023/02/25 07:06:14;;;;;;;;;;;;;;;;;;4945193;29;20295;-76
2023/02/25 07:09:01;;;;;;;;;;;;;;;;;;4931615;29;20015;-76
2023/02/25 07:11:47;;;;;;;;;;;;;;;;;;4940875;28;19946;-76
2023/02/25 07:14:34;;;;;;;;;;;;;;;;;;4932294;28;19918;-76
2023/02/25 07:17:20;;;;;;;;;;;;;;;;;;4940172;28;19925;-76
2023/02/25 07:20:07;;;;;;;;;;;;;;;;;;4934774;29;19925;-75
2023/02/25 07:22:53;;;;;;;;;;;;;;;;;;4944117;29;19922;-75
2023/02/25 07:25:40;;;;;;;;;;;;;;;;;;4936860;28;19921;-76
2023/02/25 07:28:26;;;;;;;;;;;;;;;;;;4940404;28;19927;-77
2023/02/25 07:31:13;;;;;;;;;;;;;;;;;;4954319;28;20362;-77
2023/02/25 07:34:02;;;;;;;;;;;;;;;;;;4946220;28;19921;-75
2023/02/25 07:36:48;;;;;;;;;;;;;;;;;;4934566;28;19938;-77
2023/02/25 07:39:35;;;;;;;;;;;;;;;;;;4932612;29;19926;-79
2023/02/25 07:42:22;;;;;;;;;;;;;;;;;;4946062;29;19926;-80
2023/02/25 07:45:08;;;;;;;;;;;;;;;;;;4939748;28;19926;-80
2023/02/25 07:47:55;;;;;;;;;;;;;;;;;;4944196;28;19953;-77
2023/02/25 07:50:43;;;;;;;;;;;;;;;;;;4934570;28;19933;-79
2023/02/25 07:53:30;;;;;;;;;;;;;;;;;;4937109;28;19934;-79
2023/02/25 07:56:16;;;;;;;;;;;;;;;;;;4939408;28;19923;-79
2023/02/25 07:59:03;;;;;;;;;;;;;;;;;;4944218;28;19926;-80
2023/02/25 08:01:49;;;;;;;;;;;;;;;;;;4938603;28;19923;-79
2023/02/25 08:04:36;;;;;;;;;;;;;;;;;;4934634;28;19923;-80
2023/02/25 08:07:23;;;;;;;;;;;;;;;;;;4934119;28;19927;-80
2023/02/25 08:10:09;;;;;;;;;;;;;;;;;;4940210;28;20326;-78
2023/02/25 08:12:56;;;;;;;;;;;;;;;;;;4937480;29;19925;-78
2023/02/25 08:15:42;;;;;;;;;;;;;;;;;;4944438;28;20032;-78
2023/02/25 08:18:29;;;;;;;;;;;;;;;;;;4945484;29;19923;-78
2023/02/25 08:21:16;;;;;;;;;;;;;;;;;;4941004;29;20256;-78
2023/02/25 08:24:03;;;;;;;;;;;;;;;;;;4941060;28;19918;-78
2023/02/25 08:26:49;;;;;;;;;;;;;;;;;;4944440;29;19919;-78
2023/02/25 08:29:36;;;;;;;;;;;;;;;;;;4938208;29;20023;-78
2023/02/25 08:32:24;;;;;;;;;;;;;;;;;;4930838;29;19930;-76
2023/02/25 08:35:11;;;;;;;;;;;;;;;;;;4934468;28;19918;-78
2023/02/25 08:37:57;;;;;;;;;;;;;;;;;;4933951;28;19927;-77
2023/02/25 08:40:44;;;;;;;;;;;;;;;;;;4933601;28;19927;-77
2023/02/25 08:43:30;;;;;;;;;;;;;;;;;;4933636;28;19918;-77
2023/02/25 08:46:17;;;;;;;;;;;;;;;;;;4932661;28;19922;-76
2023/02/25 08:49:04;;;;;;;;;;;;;;;;;;4940971;28;19949;-76
2023/02/25 08:51:50;;;;;;;;;;;;;;;;;;4933943;28;19919;-77
2023/02/25 08:54:37;;;;;;;;;;;;;;;;;;4935048;28;19946;-77
2023/02/25 08:57:25;;;;;;;;;;;;;;;;;;4934661;28;20666;-77
2023/02/25 09:00:13;;;;;;;;;;;;;;;;;;4934158;28;20025;-78
2023/02/25 09:03:00;;;;;;;;;;;;;;;;;;4938549;28;19922;-77
2023/02/25 09:05:46;;;;;;;;;;;;;;;;;;4938620;28;20324;-76
2023/02/25 09:08:33;;;;;;;;;;;;;;;;;;4934765;28;19930;-77
2023/02/25 09:11:19;;;;;;;;;;;;;;;;;;4931185;28;20441;-76
2023/02/25 09:14:06;;;;;;;;;;;;;;;;;;4931424;28;19927;-76
2023/02/25 09:16:52;;;;;;;;;;;;;;;;;;4933360;28;19961;-80
2023/02/25 09:19:39;;;;;;;;;;;;;;;;;;4930703;28;19986;-80
2023/02/25 09:22:25;;;;;;;;;;;;;;;;;;4931026;29;19919;-81
2023/02/25 09:25:12;;;;;;;;;;;;;;;;;;4936191;29;20255;-82
2023/02/25 09:27:59;;;;;;;;;;;;;;;;;;4936028;29;19930;-82
2023/02/25 09:30:45;;;;;;;;;;;;;;;;;;4937125;29;19961;-84
2023/02/25 09:33:32;;;;;;;;;;;;;;;;;;4934440;29;19922;-75
2023/02/25 09:36:18;;;;;;;;;;;;;;;;;;4938143;28;19929;-86
2023/02/25 09:39:08;;;;;;;;;;;;;;;;;;4942195;28;19925;-82
2023/02/25 09:41:55;;;;;;;;;;;;;;;;;;4938435;28;20351;-83
2023/02/25 09:44:41;;;;;;;;;;;;;;;;;;4936212;29;19925;-82
2023/02/25 09:47:28;;;;;;;;;;;;;;;;;;4944059;28;19926;-85
2023/02/25 09:50:17;;;;;;;;;;;;;;;;;;4938038;28;19915;-78
2023/02/25 09:53:03;;;;;;;;;;;;;;;;;;4943781;29;19919;-77
2023/02/25 09:55:50;;;;;;;;;;;;;;;;;;4944234;28;19929;-77
2023/02/25 09:58:36;;;;;;;;;;;;;;;;;;4948868;28;19953;-76
2023/02/25 10:01:25;;;;;;;;;;;;;;;;;;4940542;29;19919;-77
2023/02/25 10:04:12;;;;;;;;;;;;;;;;;;4938292;28;19926;-79
2023/02/25 10:06:58;;;;;;;;;;;;;;;;;;4926998;29;19930;-76
2023/02/25 10:09:45;;;;;;;;;;;;;;;;;;4940578;28;19946;-78
2023/02/25 10:12:31;;;;;;;;;;;;;;;;;;4938483;28;19933;-79
2023/02/25 10:15:18;;;;;;;;;;;;;;;;;;4933909;29;19919;-81
2023/02/25 10:18:04;;;;;;;;;;;;;;;;;;4938569;28;19922;-78
2023/02/25 10:20:51;;;;;;;;;;;;;;;;;;4936785;28;20685;-81
2023/02/25 10:23:37;;;;;;;;;;;;;;;;;;4923153;29;19919;-79
2023/02/25 10:26:24;;;;;;;;;;;;;;;;;;4918515;29;19929;-79
2023/02/25 10:29:10;;;;;;;;;;;;;;;;;;4927742;29;19930;-80
2023/02/25 10:31:57;;;;;;;;;;;;;;;;;;4920311;29;19942;-79
2023/02/25 10:34:45;;;;;;;;;;;;;;;;;;4932532;29;19946;-78
2023/02/25 10:37:31;;;;;;;;;;;;;;;;;;4933600;28;19923;-79
2023/02/25 10:40:18;;;;;;;;;;;;;;;;;;4931819;29;19919;-79
2023/02/25 10:43:04;;;;;;;;;;;;;;;;;;4932226;29;19929;-78
2023/02/25 10:45:51;;;;;;;;;;;;;;;;;;4933307;29;19919;-79
2023/02/25 10:48:38;;;;;;;;;;;;;;;;;;4922283;29;19931;-84
2023/02/25 10:51:26;;;;;;;;;;;;;;;;;;4931137;29;19922;-78
2023/02/25 10:54:12;;;;;;;;;;;;;;;;;;4932794;29;19929;-78
2023/02/25 10:56:59;;;;;;;;;;;;;;;;;;4937142;29;19927;-80
2023/02/25 10:59:46;;;;;;;;;;;;;;;;;;4928629;29;19930;-79
2023/02/25 11:02:33;;;;;;;;;;;;;;;;;;4940114;29;19918;-82
2023/02/25 11:05:19;;;;;;;;;;;;;;;;;;4935595;29;19923;-76
2023/02/25 11:08:06;;;;;;;;;;;;;;;;;;4918586;29;20687;-78
2023/02/25 11:10:53;;;;;;;;;;;;;;;;;;4934473;29;19938;-80
2023/02/25 11:13:39;;;;;;;;;;;;;;;;;;4936296;28;19919;-79
2023/02/25 11:16:26;;;;;;;;;;;;;;;;;;4933343;28;19923;-78
2023/02/25 11:19:13;;;;;;;;;;;;;;;;;;4936055;29;20658;-78
2023/02/25 11:22:00;;;;;;;;;;;;;;;;;;4927435;29;19966;-79
2023/02/25 11:24:47;;;;;;;;;;;;;;;;;;4935280;29;20385;-79
2023/02/25 11:27:33;;;;;;;;;;;;;;;;;;4930427;29;19931;-80
2023/02/25 11:30:20;;;;;;;;;;;;;;;;;;4933742;29;19926;-80
2023/02/25 11:33:06;;;;;;;;;;;;;;;;;;4928315;28;19918;-79
2023/02/25 11:35:53;;;;;;;;;;;;;;;;;;4939903;28;20058;-81
2023/02/25 11:38:40;;;;;;;;;;;;;;;;;;4934585;28;19922;-79
2023/02/25 11:41:26;;;;;;;;;;;;;;;;;;4937344;28;19929;-79
2023/02/25 11:44:13;;;;;;;;;;;;;;;;;;4935988;28;20354;-80
2023/02/25 11:46:59;;;;;;;;;;;;;;;;;;4937667;28;19929;-78
2023/02/25 11:49:45;;;;;;;;;;;;;;;;;;4938986;28;19933;-78
2023/02/25 11:52:32;;;;;;;;;;;;;;;;;;4943749;28;19940;-78
2023/02/25 11:55:19;;;;;;;;;;;;;;;;;;4932859;29;19926;-79
2023/02/25 11:58:05;;;;;;;;;;;;;;;;;;4933072;29;19919;-79
2023/02/25 12:00:52;;;;;;;;;;;;;;;;;;4941683;29;19944;-80
2023/02/25 12:03:38;;;;;;;;;;;;;;;;;;4941620;29;19925;-79
2023/02/25 12:06:25;;;;;;;;;;;;;;;;;;4938448;29;19921;-81
2023/02/25 12:09:11;;;;;;;;;;;;;;;;;;4934984;29;21007;-80
2023/02/25 12:11:58;;;;;;;;;;;;;;;;;;4933895;28;19919;-79
2023/02/25 12:14:44;;;;;;;;;;;;;;;;;;4935413;29;20375;-77
2023/02/25 12:17:31;;;;;;;;;;;;;;;;;;4931632;29;19923;-80
2023/02/25 12:20:17;;;;;;;;;;;;;;;;;;4925773;29;20612;-80
2023/02/25 12:23:04;;;;;;;;;;;;;;;;;;4942795;28;19934;-81
2023/02/25 12:25:50;;;;;;;;;;;;;;;;;;4941822;28;19942;-81
2023/02/25 12:28:43;;;;;;;;;;;;;;;;;;4932315;28;19923;-79
2023/02/25 12:31:30;;;;;;;;;;;;;;;;;;4940203;29;19929;-80
2023/02/25 12:34:16;;;;;;;;;;;;;;;;;;4927133;29;19925;-80
2023/02/25 12:37:04;;;;;;;;;;;;;;;;;;4924634;28;19915;-74
2023/02/25 12:39:50;;;;;;;;;;;;;;;;;;4933250;29;19919;-75
2023/02/25 12:42:37;;;;;;;;;;;;;;;;;;4939799;29;19940;-75
2023/02/25 12:45:23;;;;;;;;;;;;;;;;;;4936864;28;20375;-76
2023/02/25 12:48:12;;;;;;;;;;;;;;;;;;4934148;28;19940;-76
2023/02/25 12:50:58;;;;;;;;;;;;;;;;;;4933158;28;19918;-75
2023/02/25 12:53:45;;;;;;;;;;;;;;;;;;4937953;28;19921;-76
2023/02/25 12:56:31;;;;;;;;;;;;;;;;;;4937139;28;19926;-76
2023/02/25 12:59:18;;;;;;;;;;;;;;;;;;4937059;28;19919;-75
2023/02/25 13:02:04;;;;;;;;;;;;;;;;;;4933318;28;19922;-86
2023/02/25 13:04:51;;;;;;;;;;;;;;;;;;4940405;28;19919;-78
2023/02/25 13:07:37;;;;;;;;;;;;;;;;;;4934542;28;19937;-80
2023/02/25 13:10:24;;;;;;;;;;;;;;;;;;4932379;28;19922;-77
2023/02/25 13:13:10;;;;;;;;;;;;;;;;;;4935144;28;19918;-84
2023/02/25 13:15:57;;;;;;;;;;;;;;;;;;4937755;28;19919;-82
2023/02/25 13:18:47;;;;;;;;;;;;;;;;;;4934151;28;19919;-82
2023/02/25 13:21:33;;;;;;;;;;;;;;;;;;4932412;28;19923;-82
2023/02/25 13:24:20;;;;;;;;;;;;;;;;;;4924024;28;19918;-83
2023/02/25 13:27:07;;;;;;;;;;;;;;;;;;4935932;28;19926;-81
2023/02/25 13:29:53;;;;;;;;;;;;;;;;;;4936628;28;19949;-81
2023/02/25 13:32:40;;;;;;;;;;;;;;;;;;4925835;29;19931;-82
2023/02/25 13:35:27;;;;;;;;;;;;;;;;;;4933871;28;19918;-82
2023/02/25 13:38:14;;;;;;;;;;;;;;;;;;4929073;28;20615;-81
2023/02/25 13:41:00;;;;;;;;;;;;;;;;;;4939200;28;19918;-78
2023/02/25 13:43:47;;;;;;;;;;;;;;;;;;4937757;28;19922;-76
2023/02/25 13:46:33;;;;;;;;;;;;;;;;;;4936290;28;19922;-83
2023/02/25 13:49:20;;;;;;;;;;;;;;;;;;4935021;28;20040;-79
2023/02/25 13:52:08;;;;;;;;;;;;;;;;;;4935133;28;19926;-79
2023/02/25 13:54:54;;;;;;;;;;;;;;;;;;4935973;28;19926;-79
2023/02/25 13:57:41;;;;;;;;;;;;;;;;;;4939079;28;19934;-81
2023/02/25 14:00:28;;;;;;;;;;;;;;;;;;4940365;28;19925;-80
2023/02/25 14:03:14;;;;;;;;;;;;;;;;;;4937628;28;19926;-81
2023/02/25 14:06:02;;;;;;;;;;;;;;;;;;4937618;29;19918;-80
2023/02/25 14:08:48;;;;;;;;;;;;;;;;;;4942103;28;19934;-84
2023/02/25 14:11:36;;;;;;;;;;;;;;;;;;4938251;28;19922;-80
2023/02/25 14:14:22;;;;;;;;;;;;;;;;;;4939827;28;19925;-80
2023/02/25 14:17:09;;;;;;;;;;;;;;;;;;4937493;28;19995;-80
2023/02/25 14:19:57;;;;;;;;;;;;;;;;;;4940247;28;20281;-80
2023/02/25 14:22:44;;;;;;;;;;;;;;;;;;4928237;28;19922;-80
2023/02/25 14:25:30;;;;;;;;;;;;;;;;;;4928422;28;19923;-80
2023/02/25 14:28:17;;;;;;;;;;;;;;;;;;4942991;28;19938;-79
2023/02/25 14:31:03;;;;;;;;;;;;;;;;;;4941974;28;19934;-79
2023/02/25 14:33:50;;;;;;;;;;;;;;;;;;4928460;28;19927;-80
2023/02/25 14:36:36;;;;;;;;;;;;;;;;;;4936500;28;20480;-80
2023/02/25 14:39:24;;;;;;;;;;;;;;;;;;4941490;28;19941;-80
2023/02/25 14:42:11;;;;;;;;;;;;;;;;;;4935715;28;20034;-81
2023/02/25 14:44:57;;;;;;;;;;;;;;;;;;4926106;28;20375;-80
2023/02/25 14:47:44;;;;;;;;;;;;;;;;;;4940092;28;19938;-80
2023/02/25 14:50:31;;;;;;;;;;;;;;;;;;4936898;28;19934;-79
2023/02/25 14:53:19;;;;;;;;;;;;;;;;;;4936975;28;20399;-80
2023/02/25 14:56:05;;;;;;;;;;;;;;;;;;4935017;28;20027;-80
2023/02/25 14:58:52;;;;;;;;;;;;;;;;;;4936295;29;20673;-80
2023/02/25 15:01:39;;;;;;;;;;;;;;;;;;4934782;28;20409;-80
2023/02/25 15:04:25;;;;;;;;;;;;;;;;;;4923502;28;20038;-74
2023/02/25 15:07:12;;;;;;;;;;;;;;;;;;4934978;28;19930;-73
2023/02/25 15:09:58;;;;;;;;;;;;;;;;;;4940066;29;20643;-73
2023/02/25 15:12:45;;;;;;;;;;;;;;;;;;4929125;29;19922;-74
2023/02/25 15:15:32;;;;;;;;;;;;;;;;;;4940993;29;19926;-74
2023/02/25 15:18:18;;;;;;;;;;;;;;;;;;4941563;29;19926;-74
2023/02/25 15:21:05;;;;;;;;;;;;;;;;;;4936301;29;19927;-74
2023/02/25 15:23:51;;;;;;;;;;;;;;;;;;4941032;28;19930;-75
2023/02/25 15:26:38;;;;;;;;;;;;;;;;;;4941597;29;19922;-75
2023/02/25 15:29:24;;;;;;;;;;;;;;;;;;4935303;29;20626;-76
2023/02/25 15:32:11;;;;;;;;;;;;;;;;;;4937656;29;19977;-75
2023/02/25 15:34:58;;;;;;;;;;;;;;;;;;4943252;29;19930;-81
2023/02/25 15:37:44;;;;;;;;;;;;;;;;;;4926493;29;19926;-80
2023/02/25 15:40:31;;;;;;;;;;;;;;;;;;4927571;29;19930;-81
2023/02/25 15:43:17;;;;;;;;;;;;;;;;;;4940473;29;19930;-80
2023/02/25 15:46:04;;;;;;;;;;;;;;;;;;4928195;28;19996;-80
2023/02/25 15:48:50;;;;;;;;;;;;;;;;;;4940612;29;19937;-81
2023/02/25 15:51:36;;;;;;;;;;;;;;;;;;4936687;29;20041;-80
2023/02/25 15:54:23;;;;;;;;;;;;;;;;;;4941521;29;19918;-80
2023/02/25 15:57:09;;;;;;;;;;;;;;;;;;4926770;29;19918;-78
2023/02/25 15:59:59;;;;;;;;;;;;;;;;;;4943635;29;19925;-80
2023/02/25 16:02:46;;;;;;;;;;;;;;;;;;4930146;28;20375;-78
2023/02/25 16:05:32;;;;;;;;;;;;;;;;;;4940970;29;19922;-80
2023/02/25 16:08:19;;;;;;;;;;;;;;;;;;4928131;29;20029;-80
2023/02/25 16:11:05;;;;;;;;;;;;;;;;;;4941212;29;19918;-80
2023/02/25 16:13:52;;;;;;;;;;;;;;;;;;4940285;29;19922;-81
2023/02/25 16:16:38;;;;;;;;;;;;;;;;;;4926177;29;20005;-79
2023/02/25 16:19:25;;;;;;;;;;;;;;;;;;4941687;28;19919;-80
2023/02/25 16:22:11;;;;;;;;;;;;;;;;;;4940986;29;19924;-80
2023/02/25 16:24:58;;;;;;;;;;;;;;;;;;4928317;29;19923;-81
2023/02/25 16:27:44;;;;;;;;;;;;;;;;;;4926848;29;20393;-81
2023/02/25 16:30:31;;;;;;;;;;;;;;;;;;4927858;29;19936;-80
2023/02/25 16:33:19;;;;;;;;;;;;;;;;;;4940204;29;19930;-80
2023/02/25 16:36:05;;;;;;;;;;;;;;;;;;4920798;29;20468;-80
2023/02/25 16:38:52;;;;;;;;;;;;;;;;;;4937577;29;19929;-80
2023/02/25 16:41:38;;;;;;;;;;;;;;;;;;4940323;29;19923;-79
2023/02/25 16:44:25;;;;;;;;;;;;;;;;;;4945260;28;20401;-79
2023/02/25 16:47:11;;;;;;;;;;;;;;;;;;4929803;29;19926;-78
2023/02/25 16:49:58;;;;;;;;;;;;;;;;;;4940570;28;19934;-79
2023/02/25 16:52:44;;;;;;;;;;;;;;;;;;4934833;28;19926;-80
2023/02/25 16:55:33;;;;;;;;;;;;;;;;;;4938477;28;19930;-78
2023/02/25 16:58:19;;;;;;;;;;;;;;;;;;4937069;28;19927;-78
2023/02/25 17:01:06;;;;;;;;;;;;;;;;;;4938014;28;19919;-78
2023/02/25 17:03:55;;;;;;;;;;;;;;;;;;4941116;29;19927;-79
2023/02/25 17:06:42;;;;;;;;;;;;;;;;;;4935467;28;19923;-78
2023/02/25 17:09:28;;;;;;;;;;;;;;;;;;4941112;28;19935;-79
2023/02/25 17:12:16;;;;;;;;;;;;;;;;;;4938237;28;19925;-79
2023/02/25 17:15:02;;;;;;;;;;;;;;;;;;4940445;29;19938;-80
2023/02/25 17:17:49;;;;;;;;;;;;;;;;;;4939033;28;19934;-78
2023/02/25 17:20:35;;;;;;;;;;;;;;;;;;4936411;28;20357;-79
2023/02/25 17:23:23;;;;;;;;;;;;;;;;;;4940950;29;20371;-79
2023/02/25 17:26:09;;;;;;;;;;;;;;;;;;4928368;28;19928;-79
2023/02/25 17:28:59;;;;;;;;;;;;;;;;;;4938974;28;19926;-80
2023/02/25 17:31:45;;;;;;;;;;;;;;;;;;4930314;28;19923;-79
2023/02/25 17:34:32;;;;;;;;;;;;;;;;;;4934740;28;19926;-77
2023/02/25 17:37:18;;;;;;;;;;;;;;;;;;4934222;28;21472;-78
2023/02/25 17:40:07;;;;;;;;;;;;;;;;;;4937459;28;19927;-79
2023/02/25 17:42:53;;;;;;;;;;;;;;;;;;4935685;28;19929;-79
2023/02/25 17:45:39;;;;;;;;;;;;;;;;;;4939716;29;20550;-79
2023/02/25 17:48:26;;;;;;;;;;;;;;;;;;4939745;28;20056;-79
2023/02/25 17:51:13;;;;;;;;;;;;;;;;;;4939746;28;19922;-79
2023/02/25 17:54:00;;;;;;;;;;;;;;;;;;4929180;28;19922;-79
2023/02/25 17:56:46;;;;;;;;;;;;;;;;;;4937773;28;19922;-79
2023/02/25 17:59:38;;;;;;;;;;;;;;;;;;4936678;29;19925;-78
2023/02/25 18:02:24;;;;;;;;;;;;;;;;;;4935521;28;20303;-79
2023/02/25 18:05:11;;;;;;;;;;;;;;;;;;4938443;28;19919;-78
2023/02/25 18:07:57;;;;;;;;;;;;;;;;;;4926798;29;20300;-78
2023/02/25 18:10:44;;;;;;;;;;;;;;;;;;4941922;28;20294;-78
2023/02/25 18:13:32;;;;;;;;;;;;;;;;;;4936346;29;20355;-82
2023/02/25 18:16:19;;;;;;;;;;;;;;;;;;4938920;28;19927;-84
2023/02/25 18:19:05;;;;;;;;;;;;;;;;;;4935252;28;19937;-79
2023/02/25 18:21:54;;;;;;;;;;;;;;;;;;4927718;28;19927;-80
2023/02/25 18:24:43;;;;;;;;;;;;;;;;;;4926232;28;20660;-80
2023/02/25 18:27:31;;;;;;;;;;;;;;;;;;4936644;28;19919;-76
2023/02/25 18:30:17;;;;;;;;;;;;;;;;;;4933741;28;19926;-77
2023/02/25 18:33:04;;;;;;;;;;;;;;;;;;4931934;28;19919;-74
2023/02/25 18:35:50;;;;;;;;;;;;;;;;;;4936420;28;19929;-76
2023/02/25 18:38:37;;;;;;;;;;;;;;;;;;4939846;28;19930;-76
2023/02/25 18:41:23;;;;;;;;;;;;;;;;;;4936039;28;20294;-77
2023/02/25 18:44:10;;;;;;;;;;;;;;;;;;4939031;28;19918;-77
2023/02/25 18:46:56;;;;;;;;;;;;;;;;;;4937759;28;19929;-76
2023/02/25 18:49:43;;;;;;;;;;;;;;;;;;4940366;28;19930;-76
2023/02/25 18:52:30;;;;;;;;;;;;;;;;;;4941047;28;19922;-78
2023/02/25 18:55:16;;;;;;;;;;;;;;;;;;4939491;28;19929;-76
2023/02/25 18:58:03;;;;;;;;;;;;;;;;;;4939472;28;19922;-76